sensor_id;sensor_type;location;lat;lon;timestamp;P1;durP1;ratioP1;P2;durP2;ratioP2
10469;SDS011;5282;47.052;15.458;2024-01-15T00:01:07;42.73;;;23.20;;
10469;SDS011;5282;47.052;15.458;2024-01-15T00:03:35;47.27;;;24.40;;
10469;SDS011;5282;47.052;15.458;2024-01-15T00:06:03;46.93;;;23.20;;
10469;SDS011;5282;47.052;15.458;2024-01-15T00:08:30;43.93;;;22.47;;
10469;SDS011;5282;47.052;15.458;2024-01-15T00:10:57;44.30;;;24.23;;
10469;SDS011;5282;47.052;15.458;2024-01-15T00:13:24;49.77;;;25.87;;
10469;SDS011;5282;47.052;15.458;2024-01-15T00:15:51;49.23;;;24.63;;
10469;SDS011;5282;47.052;15.458;2024-01-15T00:18:18;49.87;;;24.47;;
10469;SDS011;5282;47.052;15.458;2024-01-15T00:20:46;51.83;;;25.03;;
10469;SDS011;5282;47.052;15.458;2024-01-15T00:23:13;49.00;;;24.80;;
10469;SDS011;5282;47.052;15.458;2024-01-15T00:25:40;56.77;;;25.00;;
10469;SDS011;5282;47.052;15.458;2024-01-15T00:28:07;50.83;;;25.83;;
10469;SDS011;5282;47.052;15.458;2024-01-15T00:30:34;54.80;;;25.07;;
10469;SDS011;5282;47.052;15.458;2024-01-15T00:33:01;58.20;;;26.27;;
10469;SDS011;5282;47.052;15.458;2024-01-15T00:35:28;54.30;;;25.67;;
10469;SDS011;5282;47.052;15.458;2024-01-15T00:37:56;59.37;;;26.10;;
10469;SDS011;5282;47.052;15.458;2024-01-15T00:40:23;55.57;;;25.67;;
10469;SDS011;5282;47.052;15.458;2024-01-15T00:42:51;57.43;;;26.10;;
10469;SDS011;5282;47.052;15.458;2024-01-15T00:45:18;62.43;;;26.53;;
10469;SDS011;5282;47.052;15.458;2024-01-15T00:47:44;55.07;;;25.27;;
10469;SDS011;5282;47.052;15.458;2024-01-15T00:50:12;61.87;;;26.90;;
10469;SDS011;5282;47.052;15.458;2024-01-15T00:52:38;64.53;;;26.63;;
10469;SDS011;5282;47.052;15.458;2024-01-15T00:55:08;55.17;;;25.40;;
10469;SDS011;5282;47.052;15.458;2024-01-15T00:57:35;59.03;;;26.03;;
10469;SDS011;5282;47.052;15.458;2024-01-15T01:00:02;57.40;;;26.10;;
10469;SDS011;5282;47.052;15.458;2024-01-15T01:02:30;57.13;;;26.30;;
10469;SDS011;5282;47.052;15.458;2024-01-15T01:04:56;55.43;;;26.10;;
10469;SDS011;5282;47.052;15.458;2024-01-15T01:07:23;56.57;;;25.13;;
10469;SDS011;5282;47.052;15.458;2024-01-15T01:09:50;56.70;;;26.00;;
10469;SDS011;5282;47.052;15.458;2024-01-15T01:12:19;57.77;;;24.97;;
10469;SDS011;5282;47.052;15.458;2024-01-15T01:14:46;55.87;;;26.27;;
10469;SDS011;5282;47.052;15.458;2024-01-15T01:17:12;51.43;;;25.50;;
10469;SDS011;5282;47.052;15.458;2024-01-15T01:19:39;57.47;;;27.10;;
10469;SDS011;5282;47.052;15.458;2024-01-15T01:22:06;59.63;;;26.47;;
10469;SDS011;5282;47.052;15.458;2024-01-15T01:24:33;53.50;;;24.47;;
10469;SDS011;5282;47.052;15.458;2024-01-15T01:27:00;56.20;;;25.70;;
10469;SDS011;5282;47.052;15.458;2024-01-15T01:29:29;58.13;;;26.87;;
10469;SDS011;5282;47.052;15.458;2024-01-15T01:31:55;53.77;;;25.50;;
10469;SDS011;5282;47.052;15.458;2024-01-15T01:34:22;52.57;;;25.73;;
10469;SDS011;5282;47.052;15.458;2024-01-15T01:36:49;53.00;;;24.93;;
10469;SDS011;5282;47.052;15.458;2024-01-15T01:39:16;49.17;;;24.33;;
10469;SDS011;5282;47.052;15.458;2024-01-15T01:41:43;52.50;;;25.87;;
10469;SDS011;5282;47.052;15.458;2024-01-15T01:44:10;52.50;;;24.47;;
10469;SDS011;5282;47.052;15.458;2024-01-15T01:46:38;53.83;;;24.37;;
10469;SDS011;5282;47.052;15.458;2024-01-15T01:49:06;54.00;;;25.70;;
10469;SDS011;5282;47.052;15.458;2024-01-15T01:51:34;53.53;;;26.80;;
10469;SDS011;5282;47.052;15.458;2024-01-15T01:54:01;53.87;;;24.57;;
10469;SDS011;5282;47.052;15.458;2024-01-15T01:56:28;57.47;;;25.33;;
10469;SDS011;5282;47.052;15.458;2024-01-15T01:58:55;53.97;;;25.07;;
10469;SDS011;5282;47.052;15.458;2024-01-15T02:01:22;60.07;;;26.37;;
10469;SDS011;5282;47.052;15.458;2024-01-15T02:03:51;68.50;;;28.40;;
10469;SDS011;5282;47.052;15.458;2024-01-15T02:06:17;71.10;;;29.47;;
10469;SDS011;5282;47.052;15.458;2024-01-15T02:08:45;61.33;;;26.30;;
10469;SDS011;5282;47.052;15.458;2024-01-15T02:11:12;62.63;;;28.03;;
10469;SDS011;5282;47.052;15.458;2024-01-15T02:13:39;60.03;;;27.00;;
10469;SDS011;5282;47.052;15.458;2024-01-15T02:16:06;67.90;;;26.90;;
10469;SDS011;5282;47.052;15.458;2024-01-15T02:18:39;67.83;;;28.23;;
10469;SDS011;5282;47.052;15.458;2024-01-15T02:21:08;56.60;;;25.83;;
10469;SDS011;5282;47.052;15.458;2024-01-15T02:23:37;61.57;;;27.80;;
10469;SDS011;5282;47.052;15.458;2024-01-15T02:26:05;56.20;;;24.43;;
10469;SDS011;5282;47.052;15.458;2024-01-15T02:28:33;64.47;;;26.77;;
10469;SDS011;5282;47.052;15.458;2024-01-15T02:31:00;58.93;;;26.23;;
10469;SDS011;5282;47.052;15.458;2024-01-15T02:33:28;58.07;;;25.50;;
10469;SDS011;5282;47.052;15.458;2024-01-15T02:35:55;55.13;;;25.43;;
10469;SDS011;5282;47.052;15.458;2024-01-15T02:38:22;58.50;;;26.63;;
10469;SDS011;5282;47.052;15.458;2024-01-15T02:40:52;61.60;;;25.63;;
10469;SDS011;5282;47.052;15.458;2024-01-15T02:43:18;60.57;;;25.83;;
10469;SDS011;5282;47.052;15.458;2024-01-15T02:45:45;69.37;;;26.67;;
10469;SDS011;5282;47.052;15.458;2024-01-15T02:48:12;60.00;;;25.93;;
10469;SDS011;5282;47.052;15.458;2024-01-15T02:50:40;56.77;;;25.80;;
10469;SDS011;5282;47.052;15.458;2024-01-15T02:53:06;59.77;;;26.50;;
10469;SDS011;5282;47.052;15.458;2024-01-15T02:55:34;56.17;;;25.20;;
10469;SDS011;5282;47.052;15.458;2024-01-15T02:58:02;54.00;;;26.53;;
10469;SDS011;5282;47.052;15.458;2024-01-15T03:00:30;60.90;;;26.63;;
10469;SDS011;5282;47.052;15.458;2024-01-15T03:02:56;63.00;;;25.83;;
10469;SDS011;5282;47.052;15.458;2024-01-15T03:05:23;55.37;;;26.03;;
10469;SDS011;5282;47.052;15.458;2024-01-15T03:07:51;52.50;;;25.23;;
10469;SDS011;5282;47.052;15.458;2024-01-15T03:10:20;54.87;;;24.87;;
10469;SDS011;5282;47.052;15.458;2024-01-15T03:12:48;53.00;;;24.50;;
10469;SDS011;5282;47.052;15.458;2024-01-15T03:15:17;57.07;;;24.80;;
10469;SDS011;5282;47.052;15.458;2024-01-15T03:17:45;54.57;;;25.60;;
10469;SDS011;5282;47.052;15.458;2024-01-15T03:20:15;60.20;;;24.63;;
10469;SDS011;5282;47.052;15.458;2024-01-15T03:22:47;59.70;;;25.97;;
10469;SDS011;5282;47.052;15.458;2024-01-15T03:25:24;57.40;;;24.43;;
10469;SDS011;5282;47.052;15.458;2024-01-15T03:27:52;56.87;;;25.33;;
10469;SDS011;5282;47.052;15.458;2024-01-15T03:30:23;53.20;;;24.77;;
10469;SDS011;5282;47.052;15.458;2024-01-15T03:32:55;60.90;;;27.23;;
10469;SDS011;5282;47.052;15.458;2024-01-15T03:35:22;56.77;;;24.17;;
10469;SDS011;5282;47.052;15.458;2024-01-15T03:37:54;56.10;;;24.40;;
10469;SDS011;5282;47.052;15.458;2024-01-15T03:40:21;60.67;;;24.87;;
10469;SDS011;5282;47.052;15.458;2024-01-15T03:42:49;58.83;;;25.63;;
10469;SDS011;5282;47.052;15.458;2024-01-15T03:45:17;60.83;;;26.10;;
10469;SDS011;5282;47.052;15.458;2024-01-15T03:47:47;53.23;;;24.40;;
10469;SDS011;5282;47.052;15.458;2024-01-15T03:50:14;50.10;;;24.60;;
10469;SDS011;5282;47.052;15.458;2024-01-15T03:52:41;53.10;;;22.77;;
10469;SDS011;5282;47.052;15.458;2024-01-15T03:55:07;50.17;;;23.37;;
10469;SDS011;5282;47.052;15.458;2024-01-15T03:57:34;50.53;;;24.30;;
10469;SDS011;5282;47.052;15.458;2024-01-15T04:00:02;50.83;;;23.47;;
10469;SDS011;5282;47.052;15.458;2024-01-15T04:02:30;56.43;;;25.60;;
10469;SDS011;5282;47.052;15.458;2024-01-15T04:04:58;53.90;;;25.47;;
10469;SDS011;5282;47.052;15.458;2024-01-15T04:07:25;54.13;;;25.20;;
10469;SDS011;5282;47.052;15.458;2024-01-15T04:09:52;57.30;;;25.67;;
10469;SDS011;5282;47.052;15.458;2024-01-15T04:12:18;58.73;;;25.50;;
10469;SDS011;5282;47.052;15.458;2024-01-15T04:14:45;58.47;;;25.27;;
10469;SDS011;5282;47.052;15.458;2024-01-15T04:17:12;61.07;;;24.87;;
10469;SDS011;5282;47.052;15.458;2024-01-15T04:19:39;62.07;;;25.60;;
10469;SDS011;5282;47.052;15.458;2024-01-15T04:22:10;62.37;;;25.07;;
10469;SDS011;5282;47.052;15.458;2024-01-15T04:24:37;58.80;;;25.00;;
10469;SDS011;5282;47.052;15.458;2024-01-15T04:27:05;62.40;;;25.47;;
10469;SDS011;5282;47.052;15.458;2024-01-15T04:29:32;50.30;;;23.87;;
10469;SDS011;5282;47.052;15.458;2024-01-15T04:31:59;61.37;;;25.40;;
10469;SDS011;5282;47.052;15.458;2024-01-15T04:34:28;52.67;;;23.97;;
10469;SDS011;5282;47.052;15.458;2024-01-15T04:36:56;54.97;;;23.77;;
10469;SDS011;5282;47.052;15.458;2024-01-15T04:39:24;51.47;;;22.97;;
10469;SDS011;5282;47.052;15.458;2024-01-15T04:41:51;54.13;;;24.50;;
10469;SDS011;5282;47.052;15.458;2024-01-15T04:44:18;59.53;;;24.33;;
10469;SDS011;5282;47.052;15.458;2024-01-15T04:46:44;49.67;;;22.70;;
10469;SDS011;5282;47.052;15.458;2024-01-15T04:49:11;54.63;;;24.77;;
10469;SDS011;5282;47.052;15.458;2024-01-15T04:51:38;55.83;;;24.93;;
10469;SDS011;5282;47.052;15.458;2024-01-15T04:54:05;52.93;;;24.03;;
10469;SDS011;5282;47.052;15.458;2024-01-15T04:56:34;59.23;;;25.33;;
10469;SDS011;5282;47.052;15.458;2024-01-15T04:59:00;56.47;;;22.93;;
10469;SDS011;5282;47.052;15.458;2024-01-15T05:01:30;57.10;;;24.00;;
10469;SDS011;5282;47.052;15.458;2024-01-15T05:03:57;57.50;;;24.97;;
10469;SDS011;5282;47.052;15.458;2024-01-15T05:06:24;55.80;;;23.97;;
10469;SDS011;5282;47.052;15.458;2024-01-15T05:08:51;56.50;;;25.00;;
10469;SDS011;5282;47.052;15.458;2024-01-15T05:11:18;54.47;;;24.20;;
10469;SDS011;5282;47.052;15.458;2024-01-15T05:13:46;57.37;;;25.10;;
10469;SDS011;5282;47.052;15.458;2024-01-15T05:16:13;56.93;;;25.17;;
10469;SDS011;5282;47.052;15.458;2024-01-15T05:18:39;59.60;;;24.93;;
10469;SDS011;5282;47.052;15.458;2024-01-15T05:21:07;53.20;;;23.67;;
10469;SDS011;5282;47.052;15.458;2024-01-15T05:23:33;61.23;;;25.20;;
10469;SDS011;5282;47.052;15.458;2024-01-15T05:26:01;58.43;;;24.60;;
10469;SDS011;5282;47.052;15.458;2024-01-15T05:28:28;57.33;;;24.97;;
10469;SDS011;5282;47.052;15.458;2024-01-15T05:30:57;53.87;;;23.67;;
10469;SDS011;5282;47.052;15.458;2024-01-15T05:33:24;57.77;;;24.93;;
10469;SDS011;5282;47.052;15.458;2024-01-15T05:35:51;49.53;;;24.30;;
10469;SDS011;5282;47.052;15.458;2024-01-15T05:38:17;50.07;;;23.83;;
10469;SDS011;5282;47.052;15.458;2024-01-15T05:40:44;59.07;;;24.60;;
10469;SDS011;5282;47.052;15.458;2024-01-15T05:43:11;52.53;;;24.00;;
10469;SDS011;5282;47.052;15.458;2024-01-15T05:45:38;50.80;;;24.47;;
10469;SDS011;5282;47.052;15.458;2024-01-15T05:48:06;52.37;;;23.67;;
10469;SDS011;5282;47.052;15.458;2024-01-15T05:50:33;60.80;;;24.23;;
10469;SDS011;5282;47.052;15.458;2024-01-15T05:53:00;54.40;;;23.17;;
10469;SDS011;5282;47.052;15.458;2024-01-15T05:55:28;53.40;;;23.40;;
10469;SDS011;5282;47.052;15.458;2024-01-15T05:57:55;55.30;;;24.37;;
10469;SDS011;5282;47.052;15.458;2024-01-15T06:00:21;53.13;;;22.67;;
10469;SDS011;5282;47.052;15.458;2024-01-15T06:02:48;53.73;;;23.40;;
10469;SDS011;5282;47.052;15.458;2024-01-15T06:05:17;52.30;;;23.67;;
10469;SDS011;5282;47.052;15.458;2024-01-15T06:07:43;50.73;;;24.23;;
10469;SDS011;5282;47.052;15.458;2024-01-15T06:10:11;52.83;;;23.67;;
10469;SDS011;5282;47.052;15.458;2024-01-15T06:12:38;56.60;;;23.30;;
10469;SDS011;5282;47.052;15.458;2024-01-15T06:15:05;50.33;;;23.07;;
10469;SDS011;5282;47.052;15.458;2024-01-15T06:17:33;53.73;;;22.90;;
10469;SDS011;5282;47.052;15.458;2024-01-15T06:19:59;52.60;;;23.93;;
10469;SDS011;5282;47.052;15.458;2024-01-15T06:22:28;53.50;;;23.73;;
10469;SDS011;5282;47.052;15.458;2024-01-15T06:24:54;52.63;;;23.37;;
10469;SDS011;5282;47.052;15.458;2024-01-15T06:27:21;60.73;;;24.43;;
10469;SDS011;5282;47.052;15.458;2024-01-15T06:29:48;55.77;;;23.93;;
10469;SDS011;5282;47.052;15.458;2024-01-15T06:32:15;54.43;;;23.37;;
10469;SDS011;5282;47.052;15.458;2024-01-15T06:34:42;62.90;;;24.73;;
10469;SDS011;5282;47.052;15.458;2024-01-15T06:37:09;54.60;;;24.60;;
10469;SDS011;5282;47.052;15.458;2024-01-15T06:39:37;56.47;;;24.37;;
10469;SDS011;5282;47.052;15.458;2024-01-15T06:42:04;52.90;;;23.60;;
10469;SDS011;5282;47.052;15.458;2024-01-15T06:44:31;58.50;;;24.87;;
10469;SDS011;5282;47.052;15.458;2024-01-15T06:46:58;53.13;;;23.13;;
10469;SDS011;5282;47.052;15.458;2024-01-15T06:49:27;59.57;;;25.63;;
10469;SDS011;5282;47.052;15.458;2024-01-15T06:51:54;64.77;;;27.53;;
10469;SDS011;5282;47.052;15.458;2024-01-15T06:54:21;61.20;;;26.67;;
10469;SDS011;5282;47.052;15.458;2024-01-15T06:56:50;55.57;;;25.57;;
10469;SDS011;5282;47.052;15.458;2024-01-15T06:59:17;51.53;;;25.30;;
10469;SDS011;5282;47.052;15.458;2024-01-15T07:01:43;60.80;;;25.67;;
10469;SDS011;5282;47.052;15.458;2024-01-15T07:04:10;54.80;;;24.80;;
10469;SDS011;5282;47.052;15.458;2024-01-15T07:06:37;57.77;;;25.03;;
10469;SDS011;5282;47.052;15.458;2024-01-15T07:09:04;60.97;;;26.67;;
10469;SDS011;5282;47.052;15.458;2024-01-15T07:11:31;57.00;;;25.93;;
10469;SDS011;5282;47.052;15.458;2024-01-15T07:13:59;67.87;;;27.03;;
10469;SDS011;5282;47.052;15.458;2024-01-15T07:16:26;59.33;;;26.83;;
10469;SDS011;5282;47.052;15.458;2024-01-15T07:18:53;64.50;;;28.77;;
10469;SDS011;5282;47.052;15.458;2024-01-15T07:21:20;61.37;;;27.37;;
10469;SDS011;5282;47.052;15.458;2024-01-15T07:23:47;63.03;;;30.20;;
10469;SDS011;5282;47.052;15.458;2024-01-15T07:26:14;67.50;;;30.97;;
10469;SDS011;5282;47.052;15.458;2024-01-15T07:28:41;68.43;;;31.70;;
10469;SDS011;5282;47.052;15.458;2024-01-15T07:31:09;61.37;;;27.10;;
10469;SDS011;5282;47.052;15.458;2024-01-15T07:33:36;59.43;;;25.47;;
10469;SDS011;5282;47.052;15.458;2024-01-15T07:36:04;51.37;;;24.77;;
10469;SDS011;5282;47.052;15.458;2024-01-15T07:38:32;50.00;;;23.90;;
10469;SDS011;5282;47.052;15.458;2024-01-15T07:40:59;46.07;;;22.80;;
10469;SDS011;5282;47.052;15.458;2024-01-15T07:43:26;60.10;;;22.87;;
10469;SDS011;5282;47.052;15.458;2024-01-15T07:45:54;50.30;;;23.40;;
10469;SDS011;5282;47.052;15.458;2024-01-15T07:48:22;50.10;;;23.17;;
10469;SDS011;5282;47.052;15.458;2024-01-15T07:50:49;51.53;;;23.77;;
10469;SDS011;5282;47.052;15.458;2024-01-15T07:53:16;51.40;;;25.97;;
10469;SDS011;5282;47.052;15.458;2024-01-15T07:55:43;51.67;;;23.23;;
10469;SDS011;5282;47.052;15.458;2024-01-15T07:58:11;46.57;;;23.63;;
10469;SDS011;5282;47.052;15.458;2024-01-15T08:00:38;47.20;;;23.13;;
10469;SDS011;5282;47.052;15.458;2024-01-15T08:03:05;50.33;;;23.40;;
10469;SDS011;5282;47.052;15.458;2024-01-15T08:05:33;54.50;;;23.60;;
10469;SDS011;5282;47.052;15.458;2024-01-15T08:08:00;51.97;;;22.30;;
10469;SDS011;5282;47.052;15.458;2024-01-15T08:10:27;49.43;;;23.63;;
10469;SDS011;5282;47.052;15.458;2024-01-15T08:12:54;46.33;;;23.77;;
10469;SDS011;5282;47.052;15.458;2024-01-15T08:15:21;50.80;;;25.07;;
10469;SDS011;5282;47.052;15.458;2024-01-15T08:17:48;50.37;;;24.13;;
10469;SDS011;5282;47.052;15.458;2024-01-15T08:20:16;53.53;;;25.20;;
10469;SDS011;5282;47.052;15.458;2024-01-15T08:22:44;49.80;;;23.53;;
10469;SDS011;5282;47.052;15.458;2024-01-15T08:25:12;49.60;;;23.77;;
10469;SDS011;5282;47.052;15.458;2024-01-15T08:27:39;46.90;;;23.53;;
10469;SDS011;5282;47.052;15.458;2024-01-15T08:30:06;45.00;;;25.30;;
10469;SDS011;5282;47.052;15.458;2024-01-15T08:32:34;51.40;;;25.10;;
10469;SDS011;5282;47.052;15.458;2024-01-15T08:35:02;50.83;;;24.43;;
10469;SDS011;5282;47.052;15.458;2024-01-15T08:37:31;43.03;;;21.93;;
10469;SDS011;5282;47.052;15.458;2024-01-15T08:39:59;58.17;;;25.40;;
10469;SDS011;5282;47.052;15.458;2024-01-15T08:42:26;51.10;;;24.23;;
10469;SDS011;5282;47.052;15.458;2024-01-15T08:44:53;51.50;;;24.47;;
10469;SDS011;5282;47.052;15.458;2024-01-15T08:47:20;49.50;;;24.60;;
10469;SDS011;5282;47.052;15.458;2024-01-15T08:49:47;50.43;;;24.73;;
10469;SDS011;5282;47.052;15.458;2024-01-15T08:52:14;53.00;;;25.63;;
10469;SDS011;5282;47.052;15.458;2024-01-15T08:54:41;57.10;;;26.77;;
10469;SDS011;5282;47.052;15.458;2024-01-15T08:57:09;57.33;;;29.33;;
10469;SDS011;5282;47.052;15.458;2024-01-15T08:59:36;55.73;;;26.60;;
10469;SDS011;5282;47.052;15.458;2024-01-15T09:02:04;51.40;;;25.83;;
10469;SDS011;5282;47.052;15.458;2024-01-15T09:04:32;50.07;;;25.57;;
10469;SDS011;5282;47.052;15.458;2024-01-15T09:06:59;47.43;;;22.20;;
10469;SDS011;5282;47.052;15.458;2024-01-15T09:09:27;43.23;;;22.53;;
10469;SDS011;5282;47.052;15.458;2024-01-15T09:11:54;46.97;;;25.27;;
10469;SDS011;5282;47.052;15.458;2024-01-15T09:14:23;42.43;;;22.33;;
10469;SDS011;5282;47.052;15.458;2024-01-15T09:16:52;43.23;;;21.90;;
10469;SDS011;5282;47.052;15.458;2024-01-15T09:19:19;45.27;;;23.23;;
10469;SDS011;5282;47.052;15.458;2024-01-15T09:21:46;45.63;;;22.83;;
10469;SDS011;5282;47.052;15.458;2024-01-15T09:24:13;39.67;;;20.97;;
10469;SDS011;5282;47.052;15.458;2024-01-15T09:26:40;39.13;;;21.77;;
10469;SDS011;5282;47.052;15.458;2024-01-15T09:29:07;37.17;;;20.23;;
10469;SDS011;5282;47.052;15.458;2024-01-15T09:31:36;42.30;;;22.27;;
10469;SDS011;5282;47.052;15.458;2024-01-15T09:34:03;43.67;;;22.83;;
10469;SDS011;5282;47.052;15.458;2024-01-15T09:36:30;37.47;;;21.97;;
10469;SDS011;5282;47.052;15.458;2024-01-15T09:38:58;41.67;;;22.27;;
10469;SDS011;5282;47.052;15.458;2024-01-15T09:41:26;35.63;;;20.90;;
10469;SDS011;5282;47.052;15.458;2024-01-15T09:43:53;36.00;;;20.87;;
10469;SDS011;5282;47.052;15.458;2024-01-15T09:46:20;34.53;;;20.90;;
10469;SDS011;5282;47.052;15.458;2024-01-15T09:48:49;35.87;;;19.40;;
10469;SDS011;5282;47.052;15.458;2024-01-15T09:51:15;31.30;;;18.43;;
10469;SDS011;5282;47.052;15.458;2024-01-15T09:53:43;32.87;;;19.17;;
10469;SDS011;5282;47.052;15.458;2024-01-15T09:56:11;29.43;;;18.33;;
10469;SDS011;5282;47.052;15.458;2024-01-15T09:58:38;28.70;;;17.97;;
10469;SDS011;5282;47.052;15.458;2024-01-15T10:01:07;26.23;;;16.53;;
10469;SDS011;5282;47.052;15.458;2024-01-15T10:03:34;27.93;;;17.17;;
10469;SDS011;5282;47.052;15.458;2024-01-15T10:06:05;25.90;;;16.73;;
10469;SDS011;5282;47.052;15.458;2024-01-15T10:08:33;26.77;;;16.73;;
10469;SDS011;5282;47.052;15.458;2024-01-15T10:11:03;24.90;;;15.60;;
10469;SDS011;5282;47.052;15.458;2024-01-15T10:13:30;20.70;;;13.73;;
10469;SDS011;5282;47.052;15.458;2024-01-15T10:15:57;23.03;;;13.73;;
10469;SDS011;5282;47.052;15.458;2024-01-15T10:18:25;17.10;;;11.57;;
10469;SDS011;5282;47.052;15.458;2024-01-15T10:20:51;16.37;;;11.80;;
10469;SDS011;5282;47.052;15.458;2024-01-15T10:23:20;17.60;;;11.77;;
10469;SDS011;5282;47.052;15.458;2024-01-15T10:25:48;18.20;;;12.40;;
10469;SDS011;5282;47.052;15.458;2024-01-15T10:28:17;19.10;;;12.57;;
10469;SDS011;5282;47.052;15.458;2024-01-15T10:30:46;16.23;;;10.90;;
10469;SDS011;5282;47.052;15.458;2024-01-15T10:33:13;19.33;;;11.73;;
10469;SDS011;5282;47.052;15.458;2024-01-15T10:35:41;15.97;;;11.27;;
10469;SDS011;5282;47.052;15.458;2024-01-15T10:38:07;16.57;;;10.90;;
10469;SDS011;5282;47.052;15.458;2024-01-15T10:40:36;15.47;;;10.90;;
10469;SDS011;5282;47.052;15.458;2024-01-15T10:43:03;15.17;;;11.07;;
10469;SDS011;5282;47.052;15.458;2024-01-15T10:45:30;14.47;;;10.40;;
10469;SDS011;5282;47.052;15.458;2024-01-15T10:47:57;15.80;;;10.40;;
10469;SDS011;5282;47.052;15.458;2024-01-15T10:50:25;16.40;;;10.37;;
10469;SDS011;5282;47.052;15.458;2024-01-15T10:52:52;12.93;;;9.77;;
10469;SDS011;5282;47.052;15.458;2024-01-15T10:55:19;14.63;;;10.43;;
10469;SDS011;5282;47.052;15.458;2024-01-15T10:57:49;20.57;;;10.23;;
10469;SDS011;5282;47.052;15.458;2024-01-15T11:00:16;16.13;;;10.73;;
10469;SDS011;5282;47.052;15.458;2024-01-15T11:02:43;11.37;;;9.10;;
10469;SDS011;5282;47.052;15.458;2024-01-15T11:05:10;11.93;;;9.70;;
10469;SDS011;5282;47.052;15.458;2024-01-15T11:07:37;11.93;;;9.50;;
10469;SDS011;5282;47.052;15.458;2024-01-15T11:10:06;10.50;;;8.90;;
10469;SDS011;5282;47.052;15.458;2024-01-15T11:12:35;10.13;;;9.00;;
10469;SDS011;5282;47.052;15.458;2024-01-15T11:15:04;13.00;;;9.87;;
10469;SDS011;5282;47.052;15.458;2024-01-15T11:20:24;10.10;;;9.00;;
10469;SDS011;5282;47.052;15.458;2024-01-15T11:22:51;10.87;;;9.63;;
10469;SDS011;5282;47.052;15.458;2024-01-15T11:25:18;10.93;;;9.53;;
10469;SDS011;5282;47.052;15.458;2024-01-15T11:27:46;12.20;;;9.70;;
10469;SDS011;5282;47.052;15.458;2024-01-15T11:30:18;12.73;;;10.07;;
10469;SDS011;5282;47.052;15.458;2024-01-15T11:32:46;13.63;;;10.30;;
10469;SDS011;5282;47.052;15.458;2024-01-15T11:35:13;13.57;;;9.67;;
10469;SDS011;5282;47.052;15.458;2024-01-15T11:37:57;9.97;;;8.50;;
10469;SDS011;5282;47.052;15.458;2024-01-15T11:40:36;12.70;;;8.97;;
10469;SDS011;5282;47.052;15.458;2024-01-15T11:43:04;9.67;;;8.53;;
10469;SDS011;5282;47.052;15.458;2024-01-15T11:45:32;10.67;;;8.63;;
10469;SDS011;5282;47.052;15.458;2024-01-15T11:48:09;10.23;;;8.93;;
10469;SDS011;5282;47.052;15.458;2024-01-15T11:50:39;11.27;;;7.90;;
10469;SDS011;5282;47.052;15.458;2024-01-15T11:53:16;9.07;;;7.67;;
10469;SDS011;5282;47.052;15.458;2024-01-15T11:55:45;15.87;;;8.90;;
10469;SDS011;5282;47.052;15.458;2024-01-15T11:58:14;11.00;;;9.80;;
10469;SDS011;5282;47.052;15.458;2024-01-15T12:00:44;14.97;;;9.53;;
10469;SDS011;5282;47.052;15.458;2024-01-15T12:03:14;12.87;;;8.40;;
10469;SDS011;5282;47.052;15.458;2024-01-15T12:05:41;11.87;;;9.63;;
10469;SDS011;5282;47.052;15.458;2024-01-15T12:08:08;10.23;;;8.57;;
10469;SDS011;5282;47.052;15.458;2024-01-15T12:10:36;13.93;;;9.03;;
10469;SDS011;5282;47.052;15.458;2024-01-15T12:13:08;9.80;;;8.60;;
10469;SDS011;5282;47.052;15.458;2024-01-15T12:15:37;8.87;;;8.00;;
10469;SDS011;5282;47.052;15.458;2024-01-15T12:18:08;16.43;;;8.77;;
10469;SDS011;5282;47.052;15.458;2024-01-15T12:20:37;10.13;;;8.60;;
10469;SDS011;5282;47.052;15.458;2024-01-15T12:23:04;10.07;;;8.83;;
10469;SDS011;5282;47.052;15.458;2024-01-15T12:25:31;10.03;;;8.17;;
10469;SDS011;5282;47.052;15.458;2024-01-15T12:27:58;8.97;;;8.13;;
10469;SDS011;5282;47.052;15.458;2024-01-15T12:30:26;10.00;;;8.43;;
10469;SDS011;5282;47.052;15.458;2024-01-15T12:32:53;14.13;;;8.77;;
10469;SDS011;5282;47.052;15.458;2024-01-15T12:35:23;10.53;;;8.57;;
10469;SDS011;5282;47.052;15.458;2024-01-15T12:37:51;9.23;;;7.73;;
10469;SDS011;5282;47.052;15.458;2024-01-15T12:40:18;9.63;;;8.37;;
10469;SDS011;5282;47.052;15.458;2024-01-15T12:42:46;10.03;;;8.60;;
10469;SDS011;5282;47.052;15.458;2024-01-15T12:45:13;9.07;;;8.17;;
10469;SDS011;5282;47.052;15.458;2024-01-15T12:47:40;10.43;;;9.37;;
10469;SDS011;5282;47.052;15.458;2024-01-15T12:50:08;10.53;;;8.63;;
10469;SDS011;5282;47.052;15.458;2024-01-15T12:52:37;13.10;;;9.57;;
10469;SDS011;5282;47.052;15.458;2024-01-15T12:55:04;11.13;;;9.27;;
10469;SDS011;5282;47.052;15.458;2024-01-15T12:57:32;13.80;;;9.43;;
10469;SDS011;5282;47.052;15.458;2024-01-15T12:59:59;15.50;;;10.00;;
10469;SDS011;5282;47.052;15.458;2024-01-15T13:02:26;11.20;;;8.90;;
10469;SDS011;5282;47.052;15.458;2024-01-15T13:04:54;10.53;;;8.87;;
10469;SDS011;5282;47.052;15.458;2024-01-15T13:07:21;14.90;;;8.90;;
10469;SDS011;5282;47.052;15.458;2024-01-15T13:09:49;9.87;;;8.67;;
10469;SDS011;5282;47.052;15.458;2024-01-15T13:12:18;10.90;;;8.93;;
10469;SDS011;5282;47.052;15.458;2024-01-15T13:14:46;10.10;;;9.00;;
10469;SDS011;5282;47.052;15.458;2024-01-15T13:17:13;9.97;;;8.97;;
10469;SDS011;5282;47.052;15.458;2024-01-15T13:19:40;10.77;;;8.93;;
10469;SDS011;5282;47.052;15.458;2024-01-15T13:22:07;10.63;;;8.63;;
10469;SDS011;5282;47.052;15.458;2024-01-15T13:24:34;9.27;;;8.23;;
10469;SDS011;5282;47.052;15.458;2024-01-15T13:27:03;11.33;;;8.43;;
10469;SDS011;5282;47.052;15.458;2024-01-15T13:29:31;10.17;;;8.47;;
10469;SDS011;5282;47.052;15.458;2024-01-15T13:31:59;12.17;;;9.00;;
10469;SDS011;5282;47.052;15.458;2024-01-15T13:34:26;10.57;;;8.67;;
10469;SDS011;5282;47.052;15.458;2024-01-15T13:36:54;10.03;;;7.83;;
10469;SDS011;5282;47.052;15.458;2024-01-15T13:39:21;9.00;;;8.10;;
10469;SDS011;5282;47.052;15.458;2024-01-15T13:41:48;9.13;;;8.23;;
10469;SDS011;5282;47.052;15.458;2024-01-15T13:44:17;8.70;;;7.80;;
10469;SDS011;5282;47.052;15.458;2024-01-15T13:46:44;9.60;;;7.97;;
10469;SDS011;5282;47.052;15.458;2024-01-15T13:49:11;8.60;;;7.60;;
10469;SDS011;5282;47.052;15.458;2024-01-15T13:51:39;10.57;;;8.47;;
10469;SDS011;5282;47.052;15.458;2024-01-15T13:54:06;11.13;;;8.20;;
10469;SDS011;5282;47.052;15.458;2024-01-15T13:56:34;9.10;;;8.20;;
10469;SDS011;5282;47.052;15.458;2024-01-15T13:59:01;10.03;;;7.83;;
10469;SDS011;5282;47.052;15.458;2024-01-15T14:01:30;8.17;;;7.37;;
10469;SDS011;5282;47.052;15.458;2024-01-15T14:03:58;8.90;;;7.53;;
10469;SDS011;5282;47.052;15.458;2024-01-15T14:06:25;8.97;;;7.47;;
10469;SDS011;5282;47.052;15.458;2024-01-15T14:08:52;8.30;;;7.47;;
10469;SDS011;5282;47.052;15.458;2024-01-15T14:11:18;7.87;;;7.17;;
10469;SDS011;5282;47.052;15.458;2024-01-15T14:13:45;7.90;;;7.13;;
10469;SDS011;5282;47.052;15.458;2024-01-15T14:16:12;7.67;;;6.70;;
10469;SDS011;5282;47.052;15.458;2024-01-15T14:18:41;8.13;;;7.33;;
10469;SDS011;5282;47.052;15.458;2024-01-15T14:21:08;8.70;;;7.53;;
10469;SDS011;5282;47.052;15.458;2024-01-15T14:23:35;8.33;;;7.50;;
10469;SDS011;5282;47.052;15.458;2024-01-15T14:26:02;8.87;;;8.00;;
10469;SDS011;5282;47.052;15.458;2024-01-15T14:28:30;8.33;;;7.00;;
10469;SDS011;5282;47.052;15.458;2024-01-15T14:30:56;7.43;;;6.63;;